Time;durP1;ratioP1;P1;durP2;ratioP2;P2;SDS_P1;SDS_P2;PMS_P1;PMS_P2;Temp;Humidity;BMP_temperature;BMP_pressure;BME280_temperature;BME280_humidity;BME280_pressure;Samples;Min_cycle;Max_cycle;Signal;HPM_P1;HPM_P2
2024/01/06 00:00:32;;;;;;;5.13;3.00;;;5.60;99.90;;;;;;973138;144;27430;-88
2024/01/06 00:02:59;;;;;;;3.43;3.07;;;5.60;99.90;;;;;;972809;144;27233;-86
2024/01/06 00:05:26;;;;;;;4.50;3.13;;;5.60;99.90;;;;;;973086;144;27374;-87
2024/01/06 00:07:52;;;;;;;5.47;3.03;;;5.60;99.90;;;;;;972871;144;27402;-88
2024/01/06 00:10:19;;;;;;;3.43;3.00;;;5.60;99.90;;;;;;974671;144;27314;-88
2024/01/06 00:12:45;;;;;;;5.47;3.20;;;5.50;99.90;;;;;;968997;144;27255;-87
2024/01/06 00:15:12;;;;;;;4.30;2.80;;;5.50;99.90;;;;;;973112;144;27287;-86
2024/01/06 00:17:39;;;;;;;3.87;2.50;;;5.50;99.90;;;;;;972890;144;27288;-80
2024/01/06 00:20:05;;;;;;;3.50;2.60;;;5.50;99.90;;;;;;971092;144;28509;-80
2024/01/06 00:22:32;;;;;;;2.60;2.20;;;5.40;99.90;;;;;;971130;144;27784;-80
2024/01/06 00:24:59;;;;;;;5.53;2.70;;;5.40;99.90;;;;;;971090;144;27247;-80
2024/01/06 00:27:25;;;;;;;2.93;2.40;;;5.40;99.90;;;;;;972334;144;27271;-82
2024/01/06 00:29:52;;;;;;;5.93;2.87;;;5.30;99.90;;;;;;972032;144;27324;-79
2024/01/06 00:32:18;;;;;;;4.17;2.50;;;5.30;99.90;;;;;;973503;144;27259;-80
2024/01/06 00:34:45;;;;;;;3.77;2.30;;;5.30;99.90;;;;;;971609;144;27325;-80
2024/01/06 00:37:11;;;;;;;3.63;2.17;;;5.30;99.90;;;;;;972118;144;27378;-81
2024/01/06 00:39:38;;;;;;;3.30;2.30;;;5.30;99.90;;;;;;970059;144;27894;-80
2024/01/06 00:42:05;;;;;;;2.47;2.17;;;5.40;99.90;;;;;;969570;144;27270;-80
2024/01/06 00:44:31;;;;;;;5.97;2.80;;;5.40;99.90;;;;;;975040;144;27277;-80
2024/01/06 00:46:58;;;;;;;4.37;2.90;;;5.40;99.90;;;;;;970816;144;27276;-80
2024/01/06 00:49:24;;;;;;;3.93;2.50;;;5.40;99.90;;;;;;973402;144;27276;-82
2024/01/06 00:51:51;;;;;;;5.53;2.77;;;5.40;99.90;;;;;;971460;144;27384;-80
2024/01/06 00:54:17;;;;;;;2.73;2.53;;;5.50;99.90;;;;;;972373;144;27221;-80
2024/01/06 00:56:44;;;;;;;2.67;2.17;;;5.50;99.90;;;;;;971759;144;27336;-81
2024/01/06 00:59:11;;;;;;;3.33;2.23;;;5.50;99.90;;;;;;972253;144;27272;-82
2024/01/06 01:01:37;;;;;;;2.70;2.50;;;5.50;99.90;;;;;;975400;144;27325;-80
2024/01/06 01:04:04;;;;;;;4.30;2.33;;;5.50;99.90;;;;;;973059;144;27323;-80
2024/01/06 01:06:30;;;;;;;5.33;2.83;;;5.50;99.90;;;;;;972940;144;27268;-79
2024/01/06 01:08:57;;;;;;;4.70;2.63;;;5.60;99.90;;;;;;970360;144;27352;-79
2024/01/06 01:11:24;;;;;;;2.83;2.00;;;5.60;99.90;;;;;;973741;144;27256;-81
2024/01/06 01:13:50;;;;;;;4.97;2.90;;;5.60;99.90;;;;;;971930;144;27330;-79
2024/01/06 01:16:17;;;;;;;3.27;2.20;;;5.60;99.90;;;;;;971541;144;27364;-79
2024/01/06 01:18:43;;;;;;;4.27;2.83;;;5.60;99.90;;;;;;972068;144;27657;-78
2024/01/06 01:21:10;;;;;;;3.83;2.23;;;5.60;99.90;;;;;;973569;144;27378;-80
2024/01/06 01:23:36;;;;;;;3.23;2.57;;;5.50;99.90;;;;;;971769;144;27408;-79
2024/01/06 01:26:03;;;;;;;3.53;2.67;;;5.50;99.90;;;;;;971899;144;27235;-79
2024/01/06 01:28:30;;;;;;;3.87;2.60;;;5.50;99.90;;;;;;969825;144;27349;-80
2024/01/06 01:30:56;;;;;;;2.83;2.27;;;5.50;99.90;;;;;;972376;144;27375;-81
2024/01/06 01:33:24;;;;;;;2.83;2.63;;;5.50;99.90;;;;;;971861;144;27341;-82
2024/01/06 01:35:49;;;;;;;2.63;2.40;;;5.50;99.90;;;;;;978056;143;27758;-80
2024/01/06 01:38:16;;;;;;;4.53;3.07;;;5.50;99.90;;;;;;975845;143;27823;-81
2024/01/06 01:40:43;;;;;;;3.00;2.50;;;5.50;99.90;;;;;;970603;143;27267;-80
2024/01/06 01:43:18;;;;;;;2.70;2.27;;;5.60;99.90;;;;;;970595;144;27227;-81
2024/01/06 01:45:45;;;;;;;2.93;2.23;;;5.60;99.90;;;;;;977985;144;27896;-80
2024/01/06 01:48:11;;;;;;;3.43;2.20;;;5.60;99.90;;;;;;972509;144;27306;-80
2024/01/06 01:50:38;;;;;;;3.43;2.20;;;5.60;99.90;;;;;;971246;144;27254;-80
2024/01/06 01:53:05;;;;;;;3.90;2.40;;;5.70;99.90;;;;;;974823;144;27302;-80
2024/01/06 01:55:31;;;;;;;3.43;2.50;;;5.80;99.90;;;;;;972584;144;27314;-83
2024/01/06 01:57:58;;;;;;;2.50;2.30;;;5.80;99.90;;;;;;973069;144;27292;-80
2024/01/06 02:00:24;;;;;;;3.70;2.60;;;5.90;99.90;;;;;;973500;144;27272;-80
2024/01/06 02:02:52;;;;;;;3.97;2.77;;;5.90;99.90;;;;;;972935;144;27298;-80
2024/01/06 02:05:18;;;;;;;3.57;2.40;;;6.00;99.90;;;;;;972084;144;27242;-81
2024/01/06 02:07:44;;;;;;;3.53;2.47;;;6.00;99.90;;;;;;972839;144;27326;-87
2024/01/06 02:10:11;;;;;;;2.83;2.10;;;6.10;99.90;;;;;;975114;144;27809;-88
2024/01/06 02:12:37;;;;;;;5.53;2.50;;;6.10;99.90;;;;;;973958;144;27250;-88
2024/01/06 02:15:04;;;;;;;5.53;2.33;;;6.20;99.90;;;;;;976861;144;27325;-86
2024/01/06 02:17:30;;;;;;;3.20;2.33;;;6.30;99.90;;;;;;973295;144;27315;-82
2024/01/06 02:19:57;;;;;;;4.87;2.73;;;6.30;99.90;;;;;;974145;144;27314;-88
2024/01/06 02:22:24;;;;;;;3.47;2.57;;;6.40;99.90;;;;;;974219;144;27290;-88
2024/01/06 02:24:50;;;;;;;5.30;2.63;;;6.50;99.90;;;;;;971415;144;27275;-88
2024/01/06 02:27:17;;;;;;;2.93;2.30;;;6.50;99.90;;;;;;973568;144;27334;-85
2024/01/06 02:29:43;;;;;;;4.80;2.23;;;6.60;99.90;;;;;;973407;144;27307;-88
2024/01/06 02:32:10;;;;;;;3.13;2.20;;;6.60;99.90;;;;;;972184;144;27408;-88
2024/01/06 02:34:38;;;;;;;4.13;2.37;;;6.60;99.90;;;;;;972662;143;27966;-86
2024/01/06 02:37:03;;;;;;;4.07;2.30;;;6.70;99.90;;;;;;975401;143;27833;-85
2024/01/06 02:39:30;;;;;;;2.90;2.30;;;6.70;99.90;;;;;;972733;143;27402;-87
2024/01/06 02:41:56;;;;;;;3.07;2.40;;;6.80;99.90;;;;;;974393;143;27356;-87
2024/01/06 02:44:23;;;;;;;3.17;2.10;;;6.80;99.90;;;;;;972998;143;27309;-88
2024/01/06 02:46:50;;;;;;;6.87;2.60;;;6.90;99.90;;;;;;975973;143;27311;-86
2024/01/06 02:49:16;;;;;;;2.30;1.80;;;6.90;99.90;;;;;;975809;143;27809;-87
2024/01/06 02:51:43;;;;;;;2.80;1.80;;;6.90;99.90;;;;;;976667;143;27379;-87
2024/01/06 02:54:09;;;;;;;2.77;2.10;;;6.90;99.90;;;;;;974486;143;27363;-87
2024/01/06 02:56:38;;;;;;;4.17;2.17;;;7.00;99.90;;;;;;973809;143;27356;-88
2024/01/06 02:59:02;;;;;;;2.50;1.90;;;7.00;99.90;;;;;;974782;143;27311;-83
2024/01/06 03:01:29;;;;;;;5.33;2.20;;;7.00;99.90;;;;;;974537;143;27325;-88
2024/01/06 03:03:56;;;;;;;2.80;2.00;;;7.00;99.90;;;;;;975774;143;27285;-88
2024/01/06 03:06:22;;;;;;;3.17;2.30;;;7.10;99.90;;;;;;976511;143;27797;-88
2024/01/06 03:08:49;;;;;;;2.50;2.00;;;7.10;99.90;;;;;;977051;143;27336;-87
2024/01/06 03:11:15;;;;;;;3.93;2.40;;;7.10;99.90;;;;;;975579;143;27399;-84
2024/01/06 03:13:42;;;;;;;2.33;1.77;;;7.10;99.90;;;;;;973854;143;27282;-87
2024/01/06 03:16:09;;;;;;;3.47;2.13;;;7.10;99.90;;;;;;970877;143;27233;-88
2024/01/06 03:18:35;;;;;;;4.27;2.60;;;7.10;99.90;;;;;;971666;143;27348;-86
2024/01/06 03:21:02;;;;;;;5.13;2.67;;;7.10;99.90;;;;;;975278;143;27309;-85
2024/01/06 03:23:28;;;;;;;2.47;2.27;;;7.10;99.90;;;;;;975569;143;27315;-88
2024/01/06 03:25:55;;;;;;;2.70;2.50;;;7.20;99.90;;;;;;971869;143;27271;-88
2024/01/06 03:28:21;;;;;;;3.90;2.53;;;7.20;99.90;;;;;;969630;143;27236;-87
2024/01/06 03:30:48;;;;;;;3.07;2.10;;;7.20;99.90;;;;;;978175;143;27321;-83
2024/01/06 03:33:15;;;;;;;4.67;2.60;;;7.20;99.90;;;;;;966932;143;27348;-88
2024/01/06 03:35:41;;;;;;;3.90;2.13;;;7.20;99.90;;;;;;969371;143;27399;-87
2024/01/06 03:38:08;;;;;;;3.10;2.07;;;7.20;99.90;;;;;;969957;143;27275;-87
2024/01/06 03:40:34;;;;;;;3.20;2.23;;;7.20;99.90;;;;;;975461;144;27254;-84
2024/01/06 03:43:01;;;;;;;3.07;2.40;;;7.30;99.90;;;;;;970755;144;27423;-85
2024/01/06 03:45:28;;;;;;;2.20;2.00;;;7.30;99.90;;;;;;972405;144;27432;-88
2024/01/06 03:47:54;;;;;;;3.33;2.20;;;7.30;99.90;;;;;;970145;144;27266;-88
2024/01/06 03:50:21;;;;;;;4.97;2.00;;;7.30;99.90;;;;;;972055;144;27329;-86
2024/01/06 03:52:48;;;;;;;2.53;2.00;;;7.30;99.90;;;;;;974255;144;27315;-83
2024/01/06 03:55:15;;;;;;;2.17;1.97;;;7.40;99.90;;;;;;972602;144;27875;-87
2024/01/06 03:57:40;;;;;;;2.27;2.07;;;7.30;99.90;;;;;;973307;143;27251;-88
2024/01/06 04:00:07;;;;;;;3.27;2.03;;;7.40;99.90;;;;;;972162;144;27265;-87
2024/01/06 04:02:34;;;;;;;3.90;2.07;;;7.40;99.90;;;;;;974859;144;27291;-84
2024/01/06 04:05:00;;;;;;;2.87;2.13;;;7.40;99.90;;;;;;972490;144;27298;-88
2024/01/06 04:07:27;;;;;;;3.43;2.03;;;7.40;99.90;;;;;;971859;144;27415;-88
2024/01/06 04:09:53;;;;;;;2.60;2.20;;;7.40;99.90;;;;;;937931;150;27294;-86
2024/01/06 04:12:20;;;;;;;4.30;1.90;;;7.40;99.90;;;;;;933427;150;27838;-85
2024/01/06 04:14:47;;;;;;;3.37;2.50;;;7.40;99.90;;;;;;974134;144;27429;-88
2024/01/06 04:17:13;;;;;;;4.33;2.63;;;7.40;99.90;;;;;;973094;144;27227;-87
2024/01/06 04:19:40;;;;;;;5.30;2.70;;;7.40;99.90;;;;;;973349;144;27262;-88
2024/01/06 04:22:06;;;;;;;3.53;2.30;;;7.40;99.90;;;;;;973867;144;27324;-86
2024/01/06 04:24:37;;;;;;;3.83;2.40;;;7.40;99.90;;;;;;974162;144;27318;-88
2024/01/06 04:27:00;;;;;;;2.77;2.43;;;7.40;99.90;;;;;;971812;144;27329;-88
2024/01/06 04:29:26;;;;;;;3.37;2.43;;;7.40;99.90;;;;;;969013;144;27338;-79
2024/01/06 04:31:53;;;;;;;3.67;2.37;;;7.40;99.90;;;;;;974268;144;27248;-80
2024/01/06 04:34:19;;;;;;;3.03;2.10;;;7.40;99.90;;;;;;971348;144;27417;-83
2024/01/06 04:36:46;;;;;;;5.37;2.40;;;7.40;99.90;;;;;;972291;143;27466;-79
2024/01/06 04:39:13;;;;;;;3.50;2.10;;;7.40;99.90;;;;;;969892;143;27234;-80
2024/01/06 04:41:40;;;;;;;2.33;2.10;;;7.40;99.90;;;;;;970293;144;27785;-79
2024/01/06 04:44:06;;;;;;;4.20;2.50;;;7.50;99.90;;;;;;968420;143;27387;-81
2024/01/06 04:46:32;;;;;;;2.80;2.40;;;7.50;99.90;;;;;;968664;143;27329;-80
2024/01/06 04:48:59;;;;;;;2.60;1.90;;;7.50;99.90;;;;;;970640;143;27915;-79
2024/01/06 04:51:25;;;;;;;2.83;2.13;;;7.50;99.90;;;;;;967548;144;27338;-81
2024/01/06 04:53:52;;;;;;;3.53;2.20;;;7.50;99.90;;;;;;968959;143;27287;-80
2024/01/06 04:56:19;;;;;;;6.17;2.27;;;7.50;99.90;;;;;;968916;143;27405;-80
2024/01/06 04:58:45;;;;;;;2.47;2.20;;;7.60;99.90;;;;;;969955;144;28485;-79
2024/01/06 05:01:12;;;;;;;3.40;2.47;;;7.60;99.90;;;;;;966595;144;27229;-79
2024/01/06 05:03:38;;;;;;;3.50;2.00;;;7.60;99.90;;;;;;970942;144;27259;-79
2024/01/06 05:06:05;;;;;;;3.27;2.30;;;7.70;99.90;;;;;;969389;143;27372;-83
2024/01/06 05:08:31;;;;;;;5.20;2.30;;;7.70;99.90;;;;;;969817;144;27478;-80
2024/01/06 05:10:58;;;;;;;2.43;1.90;;;7.70;99.90;;;;;;971195;144;27881;-80
2024/01/06 05:13:25;;;;;;;3.80;2.47;;;7.70;99.90;;;;;;969311;144;27367;-81
2024/01/06 05:15:51;;;;;;;5.50;2.37;;;7.80;99.90;;;;;;970485;144;27227;-82
2024/01/06 05:18:18;;;;;;;2.43;2.07;;;7.80;99.90;;;;;;967764;144;27433;-79
2024/01/06 05:20:44;;;;;;;2.37;2.07;;;7.80;99.90;;;;;;971722;144;27260;-80
2024/01/06 05:23:11;;;;;;;4.63;2.20;;;7.80;99.90;;;;;;968453;144;27368;-79
2024/01/06 05:25:38;;;;;;;4.77;1.90;;;7.90;99.90;;;;;;970864;143;27453;-80
2024/01/06 05:28:04;;;;;;;2.60;2.33;;;7.90;99.90;;;;;;965840;143;28047;-84
2024/01/06 05:30:31;;;;;;;4.63;2.47;;;7.90;99.90;;;;;;971163;143;27333;-78
2024/01/06 05:32:57;;;;;;;3.00;2.27;;;7.90;99.90;;;;;;972541;143;27372;-79
2024/01/06 05:35:24;;;;;;;2.63;2.20;;;7.90;99.90;;;;;;925362;152;27330;-79
2024/01/06 05:37:50;;;;;;;5.30;2.70;;;8.00;99.90;;;;;;971218;143;27274;-81
2024/01/06 05:40:17;;;;;;;4.27;3.13;;;8.00;99.90;;;;;;970955;143;27415;-88
2024/01/06 05:42:44;;;;;;;5.47;2.80;;;8.00;99.90;;;;;;968752;143;27215;-88
2024/01/06 05:45:13;;;;;;;5.33;2.80;;;8.00;99.90;;;;;;969615;143;27605;-87
2024/01/06 05:47:40;;;;;;;3.23;2.30;;;8.00;99.90;;;;;;970327;143;27236;-85
2024/01/06 05:50:10;;;;;;;2.63;2.33;;;8.00;99.90;;;;;;972297;143;27334;-87
2024/01/06 05:52:33;;;;;;;3.57;2.40;;;8.00;99.90;;;;;;970244;143;27420;-87
2024/01/06 05:55:00;;;;;;;3.50;2.60;;;8.00;99.90;;;;;;925619;154;27392;-88
2024/01/06 05:57:27;;;;;;;4.33;2.57;;;8.00;99.90;;;;;;970916;143;27280;-87
2024/01/06 05:59:53;;;;;;;3.20;2.57;;;7.90;99.90;;;;;;968508;143;27373;-86
2024/01/06 06:02:20;;;;;;;5.70;2.93;;;7.90;99.90;;;;;;969012;144;27334;-88
2024/01/06 06:04:46;;;;;;;3.27;2.70;;;7.90;99.90;;;;;;968901;143;27325;-86
2024/01/06 06:07:13;;;;;;;3.17;2.80;;;7.90;99.90;;;;;;968633;142;27275;-88
2024/01/06 06:09:40;;;;;;;4.23;2.93;;;7.90;99.90;;;;;;967698;143;27418;-88
2024/01/06 06:12:06;;;;;;;4.63;2.77;;;7.90;99.90;;;;;;959669;144;27337;-87
2024/01/06 06:14:33;;;;;;;3.50;2.37;;;7.90;99.90;;;;;;973238;143;28402;-88
2024/01/06 06:16:59;;;;;;;6.73;2.70;;;7.90;99.90;;;;;;978938;143;27301;-88
2024/01/06 06:19:26;;;;;;;5.53;2.70;;;7.90;99.90;;;;;;978600;143;27379;-88
2024/01/06 06:45:41;;;;;;;3.27;2.60;;;7.90;99.90;;;;;;976529;143;40466;-83
2024/01/06 06:48:07;;;;;;;3.47;2.70;;;8.40;99.90;;;;;;975480;144;27353;-84
2024/01/06 06:50:34;;;;;;;5.03;2.57;;;8.50;99.90;;;;;;952966;148;27345;-80
2024/01/06 06:53:03;;;;;;;3.07;2.30;;;8.50;99.90;;;;;;973914;144;27377;-81
2024/01/06 06:55:27;;;;;;;2.93;1.97;;;8.50;99.90;;;;;;973702;144;27382;-81
2024/01/06 06:57:54;;;;;;;5.13;2.63;;;8.50;99.90;;;;;;974292;146;27397;-84
2024/01/06 07:00:20;;;;;;;2.30;2.10;;;8.50;99.90;;;;;;973996;142;27316;-80
2024/01/06 07:02:47;;;;;;;2.90;2.67;;;8.50;99.90;;;;;;973805;144;27214;-80
2024/01/06 07:05:13;;;;;;;3.33;2.37;;;8.50;99.90;;;;;;974112;144;27365;-80
2024/01/06 07:07:40;;;;;;;2.73;2.53;;;8.50;99.90;;;;;;972298;142;27331;-83
2024/01/06 07:10:07;;;;;;;4.07;2.20;;;8.40;99.90;;;;;;963203;146;27446;-81
2024/01/06 07:12:33;;;;;;;2.77;2.30;;;8.40;99.90;;;;;;964260;145;27333;-81
2024/01/06 07:15:00;;;;;;;2.63;1.97;;;8.40;99.90;;;;;;962432;145;27268;-81
2024/01/06 07:17:26;;;;;;;3.03;2.50;;;8.40;99.90;;;;;;962863;146;27230;-82
2024/01/06 07:19:53;;;;;;;5.07;2.87;;;8.40;99.90;;;;;;963056;146;27310;-86
2024/01/06 07:22:20;;;;;;;3.80;3.10;;;8.40;99.90;;;;;;963184;146;27407;-89
2024/01/06 07:24:46;;;;;;;4.07;2.63;;;8.30;99.90;;;;;;962841;146;27922;-89
2024/01/06 07:27:13;;;;;;;2.67;2.40;;;8.30;99.90;;;;;;962897;146;27332;-90
2024/01/06 07:29:39;;;;;;;3.13;2.37;;;8.30;99.90;;;;;;963274;145;27868;-85
2024/01/06 07:32:09;;;;;;;5.97;2.73;;;8.30;99.90;;;;;;963075;146;27415;-91
2024/01/06 07:34:35;;;;;;;3.97;2.53;;;8.30;99.90;;;;;;962416;145;27291;-89
2024/01/06 07:37:02;;;;;;;3.33;2.40;;;8.30;99.90;;;;;;962884;145;27309;-89
2024/01/06 07:39:29;;;;;;;2.30;2.10;;;8.30;99.90;;;;;;963508;145;27313;-89
2024/01/06 07:41:55;;;;;;;2.33;2.13;;;8.30;99.90;;;;;;963081;146;27427;-90
2024/01/06 07:44:24;;;;;;;2.17;1.93;;;8.40;99.90;;;;;;962926;146;27338;-90
2024/01/06 07:46:48;;;;;;;3.13;2.27;;;8.40;99.90;;;;;;962358;146;27309;-91
2024/01/06 07:49:15;;;;;;;3.43;2.20;;;8.40;99.90;;;;;;962246;146;27390;-87
2024/01/06 07:51:41;;;;;;;2.60;2.20;;;8.40;99.90;;;;;;962407;146;27317;-82
2024/01/06 07:54:09;;;;;;;3.87;2.17;;;8.40;99.90;;;;;;962271;146;27330;-90
2024/01/06 07:56:35;;;;;;;2.63;2.43;;;8.40;99.90;;;;;;962752;145;27279;-91
2024/01/06 07:59:06;;;;;;;3.70;2.37;;;8.40;99.90;;;;;;961263;146;27390;-89
2024/01/06 08:01:31;;;;;;;4.23;2.50;;;8.50;99.90;;;;;;963208;145;27343;-79
2024/01/06 08:03:57;;;;;;;2.37;2.10;;;8.50;99.90;;;;;;962165;145;27814;-79
2024/01/06 08:06:25;;;;;;;3.20;2.20;;;8.50;99.90;;;;;;962857;145;27286;-79
2024/01/06 08:08:50;;;;;;;2.60;2.40;;;8.50;99.90;;;;;;962249;146;27395;-79
2024/01/06 08:11:17;;;;;;;4.77;2.83;;;8.60;99.90;;;;;;962585;146;27356;-84
2024/01/06 08:13:43;;;;;;;3.80;2.20;;;8.60;99.90;;;;;;962737;145;27415;-80
2024/01/06 08:16:10;;;;;;;3.17;2.13;;;8.60;99.90;;;;;;962084;145;27310;-79
2024/01/06 08:18:37;;;;;;;3.10;2.73;;;8.70;99.90;;;;;;961641;146;27363;-79
2024/01/06 08:21:03;;;;;;;4.77;2.70;;;8.70;99.90;;;;;;962481;145;27326;-81
2024/01/06 08:23:30;;;;;;;4.00;2.40;;;8.70;99.90;;;;;;961744;146;27398;-79
2024/01/06 08:25:56;;;;;;;4.17;2.70;;;8.80;99.90;;;;;;962306;146;27370;-79
2024/01/06 08:28:23;;;;;;;4.60;2.73;;;8.80;99.90;;;;;;962917;145;27299;-79
2024/01/06 08:30:50;;;;;;;6.47;2.70;;;8.90;99.90;;;;;;962828;146;27313;-80
2024/01/06 08:33:17;;;;;;;3.17;2.87;;;8.90;99.90;;;;;;962456;146;27342;-84
2024/01/06 08:35:43;;;;;;;5.00;2.80;;;8.90;99.90;;;;;;962050;145;27375;-78
2024/01/06 08:38:09;;;;;;;5.43;2.70;;;8.90;99.90;;;;;;962538;145;27334;-77
2024/01/06 08:40:36;;;;;;;2.93;2.40;;;9.00;99.90;;;;;;962323;146;27270;-77
2024/01/06 08:43:02;;;;;;;3.60;2.70;;;9.00;99.90;;;;;;962403;146;27351;-82
2024/01/06 08:45:29;;;;;;;4.07;2.83;;;9.00;99.90;;;;;;961975;146;28457;-77
2024/01/06 08:47:56;;;;;;;2.83;2.50;;;9.10;99.90;;;;;;961692;149;27294;-77
2024/01/06 08:50:22;;;;;;;3.43;2.50;;;9.10;99.90;;;;;;962312;148;27269;-77
2024/01/06 08:52:49;;;;;;;2.80;2.60;;;9.10;99.90;;;;;;963321;146;27338;-81
2024/01/06 08:55:16;;;;;;;3.43;2.67;;;9.10;99.90;;;;;;962605;148;27414;-77
2024/01/06 08:57:42;;;;;;;6.20;2.80;;;9.10;99.90;;;;;;962082;147;27409;-78
2024/01/06 09:00:10;;;;;;;2.93;2.50;;;9.20;99.90;;;;;;961647;148;27274;-77
2024/01/06 09:02:35;;;;;;;3.70;3.03;;;9.20;99.90;;;;;;962483;148;27285;-79
2024/01/06 09:05:02;;;;;;;2.87;2.53;;;9.20;99.90;;;;;;961912;147;27345;-77
2024/01/06 09:07:28;;;;;;;3.73;2.83;;;9.20;99.90;;;;;;962155;146;27271;-79
2024/01/06 09:09:55;;;;;;;4.20;2.63;;;9.30;99.90;;;;;;962601;148;27310;-92
2024/01/06 09:12:21;;;;;;;4.73;3.20;;;9.30;99.90;;;;;;962276;147;27324;-88
2024/01/06 09:14:48;;;;;;;4.00;2.47;;;9.30;99.90;;;;;;924639;155;27411;-92
2024/01/06 09:17:15;;;;;;;4.60;2.43;;;9.30;99.90;;;;;;924030;155;27362;-88
2024/01/06 09:19:41;;;;;;;3.40;2.50;;;9.40;99.90;;;;;;923999;154;28255;-90
2024/01/06 09:22:08;;;;;;;2.97;2.67;;;9.40;99.90;;;;;;923718;154;27320;-88
2024/01/06 09:24:34;;;;;;;2.97;2.60;;;9.40;99.90;;;;;;923795;152;27459;-92
2024/01/06 09:27:01;;;;;;;3.37;3.07;;;9.40;99.90;;;;;;923993;155;27204;-92
2024/01/06 09:29:28;;;;;;;3.23;2.50;;;9.50;99.90;;;;;;923978;152;27335;-92
2024/01/06 09:31:54;;;;;;;5.03;2.87;;;9.50;99.90;;;;;;924238;155;27249;-89
2024/01/06 09:34:21;;;;;;;4.33;2.70;;;9.60;99.90;;;;;;924138;155;27845;-88
2024/01/06 09:36:47;;;;;;;3.83;3.00;;;9.60;99.90;;;;;;924497;154;27423;-92
2024/01/06 09:39:14;;;;;;;5.67;2.70;;;9.70;99.90;;;;;;924026;154;27430;-78
2024/01/06 09:41:41;;;;;;;3.53;3.13;;;9.70;99.90;;;;;;923664;154;27243;-80
2024/01/06 09:44:07;;;;;;;4.20;3.33;;;9.70;99.90;;;;;;923956;154;27300;-79
2024/01/06 09:46:35;;;;;;;4.50;3.27;;;9.80;99.90;;;;;;923994;154;27395;-79
2024/01/06 09:49:00;;;;;;;4.13;2.93;;;9.80;99.90;;;;;;936625;149;27316;-78
2024/01/06 09:51:27;;;;;;;3.33;2.90;;;9.90;99.90;;;;;;943362;149;27263;-79
2024/01/06 09:53:56;;;;;;;2.80;2.60;;;9.90;99.90;;;;;;923608;152;27328;-79
2024/01/06 09:56:23;;;;;;;3.07;2.77;;;9.90;99.90;;;;;;928583;150;27792;-80
2024/01/06 09:58:49;;;;;;;3.00;2.70;;;10.00;99.90;;;;;;929211;152;27350;-78
2024/01/06 10:01:16;;;;;;;3.27;2.40;;;10.00;99.90;;;;;;930069;151;27295;-79
2024/01/06 10:03:42;;;;;;;4.37;3.30;;;10.10;99.90;;;;;;929474;151;27373;-80
2024/01/06 10:06:09;;;;;;;4.43;2.90;;;10.10;99.90;;;;;;929791;151;27347;-78
2024/01/06 10:08:36;;;;;;;3.53;2.80;;;10.20;99.90;;;;;;929114;151;27487;-77
2024/01/06 10:11:02;;;;;;;5.17;3.10;;;10.20;99.90;;;;;;943277;149;27277;-81
2024/01/06 10:13:29;;;;;;;4.60;2.90;;;10.20;99.90;;;;;;925229;152;27509;-78
2024/01/06 10:15:55;;;;;;;3.13;2.83;;;10.30;99.90;;;;;;943066;149;27304;-80
2024/01/06 10:18:22;;;;;;;2.90;2.60;;;10.30;99.90;;;;;;924045;154;27361;-82
2024/01/06 10:20:49;;;;;;;2.93;2.70;;;10.40;99.90;;;;;;926902;152;27306;-89
2024/01/06 10:23:15;;;;;;;2.97;2.77;;;10.40;99.90;;;;;;927872;152;27308;-88
2024/01/06 10:25:42;;;;;;;4.27;3.17;;;10.50;99.90;;;;;;929450;150;27300;-85
2024/01/06 10:28:08;;;;;;;3.53;2.90;;;10.50;99.90;;;;;;926658;152;27489;-90
2024/01/06 10:30:35;;;;;;;5.50;3.23;;;10.60;99.90;;;;;;931271;151;27501;-87
2024/01/06 10:33:02;;;;;;;4.43;3.20;;;10.60;99.90;;;;;;931012;151;27385;-90
2024/01/06 10:35:28;;;;;;;4.43;3.03;;;10.70;99.90;;;;;;932451;151;27439;-89
2024/01/06 10:37:55;;;;;;;2.90;2.70;;;10.70;99.90;;;;;;943373;149;27446;-90
2024/01/06 10:40:21;;;;;;;4.30;3.13;;;10.80;99.60;;;;;;943879;150;28166;-87
2024/01/06 10:42:48;;;;;;;4.80;3.17;;;10.80;99.30;;;;;;943973;149;27411;-86
2024/01/06 10:45:15;;;;;;;3.95;2.60;;;10.80;99.00;;;;;;943849;150;27294;-86
2024/01/06 10:47:41;;;;;;;4.70;2.53;;;10.80;98.60;;;;;;943571;149;27348;-82
2024/01/06 10:50:10;;;;;;;4.30;2.80;;;10.90;98.30;;;;;;942971;149;27445;-79
2024/01/06 10:52:37;;;;;;;3.50;2.50;;;10.90;98.10;;;;;;943371;148;27346;-79
2024/01/06 10:55:04;;;;;;;4.17;2.90;;;10.90;98.00;;;;;;942280;149;27461;-80
2024/01/06 10:57:33;;;;;;;5.53;3.33;;;10.90;98.20;;;;;;942955;149;27348;-82
2024/01/06 10:59:57;;;;;;;4.20;2.80;;;10.90;98.30;;;;;;942437;150;27450;-79
2024/01/06 11:02:25;;;;;;;3.30;2.60;;;10.90;98.40;;;;;;943852;149;28363;-79
2024/01/06 11:04:50;;;;;;;5.30;2.90;;;10.90;98.50;;;;;;942874;148;27373;-79
2024/01/06 11:07:20;;;;;;;3.23;2.80;;;10.90;98.90;;;;;;943741;150;27345;-79
2024/01/06 11:10:02;;;;;;;3.20;2.60;;;11.00;98.60;;;;;;941157;149;27395;-82
2024/01/06 11:12:27;;;;;;;3.07;2.83;;;11.00;98.50;;;;;;942873;149;28145;-79
2024/01/06 11:14:54;;;;;;;4.07;2.93;;;11.00;98.40;;;;;;943382;149;27409;-79
2024/01/06 11:17:55;;;;;;;2.90;2.63;;;11.10;98.50;;;;;;943355;149;27322;-81
2024/01/06 11:20:21;;;;;;;4.37;3.80;;;11.10;98.50;;;;;;942954;150;27399;-82
2024/01/06 11:22:47;;;;;;;5.40;3.10;;;11.10;98.40;;;;;;943329;149;27361;-80
2024/01/06 11:25:14;;;;;;;4.72;2.90;;;11.10;98.30;;;;;;942969;149;27942;-80
2024/01/06 11:27:40;;;;;;;5.57;4.40;;;11.20;98.10;;;;;;943365;149;27418;-79
2024/01/06 11:30:07;;;;;;;5.47;4.37;;;11.20;97.80;;;;;;943360;149;27291;-79
2024/01/06 11:32:36;;;;;;;6.43;3.97;;;11.20;97.70;;;;;;930222;150;27315;-82
2024/01/06 11:35:06;;;;;;;4.00;3.15;;;11.20;97.60;;;;;;927885;150;27756;-79
2024/01/06 11:37:41;;;;;;;3.60;2.70;;;11.30;97.40;;;;;;935393;150;27338;-80
2024/01/06 11:40:13;;;;;;;5.57;2.90;;;11.30;97.20;;;;;;940544;150;27319;-83
2024/01/06 11:42:37;;;;;;;3.50;2.55;;;11.30;97.00;;;;;;960454;146;27443;-79
2024/01/06 11:45:05;;;;;;;3.70;2.60;;;11.30;97.10;;;;;;962349;146;27286;-79
2024/01/06 11:47:30;;;;;;;5.07;3.03;;;11.30;97.30;;;;;;960860;146;27419;-79
2024/01/06 11:49:57;;;;;;;2.60;2.40;;;11.30;97.20;;;;;;961781;146;27264;-80
2024/01/06 11:52:25;;;;;;;3.58;2.62;;;11.30;97.30;;;;;;961671;148;27423;-82
2024/01/06 11:54:50;;;;;;;2.77;2.53;;;11.30;97.40;;;;;;961968;149;27604;-79
2024/01/06 11:57:17;;;;;;;4.20;2.73;;;11.30;97.50;;;;;;962345;149;27813;-79
2024/01/06 11:59:43;;;;;;;6.00;2.90;;;11.40;97.60;;;;;;962436;146;27265;-79
2024/01/06 12:02:13;;;;;;;4.03;3.00;;;11.40;97.60;;;;;;961905;148;27338;-83
2024/01/06 12:04:40;;;;;;;3.83;3.10;;;11.50;97.60;;;;;;962254;146;27414;-79
2024/01/06 12:07:06;;;;;;;5.03;2.90;;;11.50;97.60;;;;;;961705;148;27225;-79
2024/01/06 12:09:33;;;;;;;2.65;2.45;;;11.60;97.40;;;;;;962080;146;27346;-80
2024/01/06 12:12:02;;;;;;;3.23;2.90;;;11.60;97.00;;;;;;962160;148;27309;-82
2024/01/06 12:14:29;;;;;;;4.08;3.55;;;11.70;96.90;;;;;;962164;149;27298;-79
2024/01/06 12:16:57;;;;;;;3.85;3.10;;;11.70;96.90;;;;;;961988;146;27296;-78
2024/01/06 12:19:22;;;;;;;3.92;3.17;;;11.80;96.80;;;;;;961570;148;27239;-79
2024/01/06 12:21:48;;;;;;;5.03;3.25;;;11.80;96.70;;;;;;961823;148;27321;-83
2024/01/06 12:24:21;;;;;;;3.30;2.50;;;11.80;96.60;;;;;;962325;148;27436;-79
2024/01/06 12:26:47;;;;;;;6.17;3.50;;;11.90;96.50;;;;;;962492;148;27775;-79
2024/01/06 12:29:14;;;;;;;5.15;3.10;;;11.90;96.40;;;;;;962439;148;27211;-81
2024/01/06 12:31:40;;;;;;;3.37;3.00;;;11.90;96.10;;;;;;961846;149;27423;-78
2024/01/06 12:34:07;;;;;;;3.45;3.05;;;12.00;96.00;;;;;;961454;149;27332;-79
2024/01/06 12:36:36;;;;;;;4.40;2.75;;;12.00;95.80;;;;;;962077;146;27336;-79
2024/01/06 12:39:05;;;;;;;3.47;3.17;;;12.00;95.70;;;;;;961309;146;27243;-78
2024/01/06 12:41:34;;;;;;;3.10;2.80;;;12.00;95.50;;;;;;962176;146;27423;-82
2024/01/06 12:43:58;;;;;;;4.57;3.20;;;12.00;95.60;;;;;;961645;146;27259;-86
2024/01/06 12:46:25;;;;;;;3.12;2.83;;;12.10;95.70;;;;;;962363;149;27374;-86
2024/01/06 12:48:52;;;;;;;4.10;2.70;;;12.10;95.70;;;;;;961908;146;27342;-83
2024/01/06 12:51:18;;;;;;;3.40;3.10;;;12.10;95.70;;;;;;962242;146;27297;-86
2024/01/06 12:53:45;;;;;;;3.37;2.92;;;12.20;95.70;;;;;;961956;146;27304;-83
2024/01/06 12:56:14;;;;;;;3.37;2.70;;;12.20;95.70;;;;;;943447;149;27378;-86
2024/01/06 12:58:38;;;;;;;3.07;2.87;;;12.20;95.50;;;;;;930829;150;27382;-85
2024/01/06 13:01:05;;;;;;;5.28;3.17;;;12.30;95.20;;;;;;943369;149;27335;-82
2024/01/06 13:03:31;;;;;;;3.37;2.80;;;12.30;95.00;;;;;;925369;151;27452;-85
2024/01/06 13:05:58;;;;;;;2.92;2.72;;;12.30;94.70;;;;;;943245;149;27358;-86
2024/01/06 13:08:24;;;;;;;3.02;2.72;;;12.30;94.60;;;;;;944002;149;27353;-86
2024/01/06 13:10:51;;;;;;;4.75;2.75;;;12.30;94.50;;;;;;943730;150;27374;-82
2024/01/06 13:13:18;;;;;;;6.78;3.40;;;12.30;94.20;;;;;;943872;150;27451;-86
2024/01/06 13:15:46;;;;;;;2.98;2.77;;;12.30;94.10;;;;;;943707;150;27294;-86